Time;durP1;ratioP1;P1;durP2;ratioP2;P2;SDS_P1;SDS_P2;PMS_P1;PMS_P2;Temp;Humidity;BMP_temperature;BMP_pressure;BME280_temperature;BME280_humidity;BME280_pressure;Samples;Min_cycle;Max_cycle;Signal;HPM_P1;HPM_P2
2021/05/17 00:02:23;;;;;;;12.73;5.78;;;17.80;77.50;;;;;;5155414;27;20521;-71
2021/05/17 00:04:49;;;;;;;6.72;4.63;;;17.80;77.90;;;;;;5159094;27;20452;-71
2021/05/17 00:07:16;;;;;;;11.85;4.80;;;17.90;77.60;;;;;;5140626;27;20031;-71
2021/05/17 00:09:42;;;;;;;8.77;4.78;;;17.90;77.10;;;;;;5159252;27;20380;-71
2021/05/17 00:12:09;;;;;;;11.07;5.50;;;17.90;77.00;;;;;;5158841;27;20106;-71
2021/05/17 00:14:36;;;;;;;9.73;5.05;;;17.90;77.00;;;;;;5159123;27;20038;-71
2021/05/17 00:17:02;;;;;;;7.43;4.50;;;17.90;76.40;;;;;;5159009;27;20023;-71
2021/05/17 00:19:28;;;;;;;9.50;4.93;;;17.80;76.40;;;;;;5158757;27;20026;-71
2021/05/17 00:21:54;;;;;;;7.15;3.97;;;17.70;76.40;;;;;;5159312;27;20116;-71
2021/05/17 00:24:21;;;;;;;8.30;4.30;;;17.70;76.30;;;;;;5159510;27;20423;-71
2021/05/17 00:26:47;;;;;;;6.43;4.00;;;17.60;76.20;;;;;;5158735;27;20372;-71
2021/05/17 00:29:13;;;;;;;9.02;4.22;;;17.60;76.30;;;;;;5159075;27;20376;-71
2021/05/17 00:31:40;;;;;;;8.68;5.00;;;17.60;76.40;;;;;;5158252;27;20033;-71
2021/05/17 00:34:08;;;;;;;8.43;4.68;;;17.50;77.30;;;;;;5158776;27;20018;-71
2021/05/17 00:36:35;;;;;;;7.47;4.20;;;17.40;77.00;;;;;;5158925;27;20069;-71
2021/05/17 00:39:02;;;;;;;8.30;3.80;;;17.30;77.00;;;;;;5159166;27;20046;-71
2021/05/17 00:41:29;;;;;;;5.82;4.18;;;17.30;77.20;;;;;;5158632;27;20101;-71
2021/05/17 00:43:55;;;;;;;8.05;3.90;;;17.30;77.60;;;;;;5159143;27;20046;-71
2021/05/17 00:46:23;;;;;;;7.75;4.32;;;17.20;77.90;;;;;;5158562;27;20038;-71
2021/05/17 00:48:49;;;;;;;6.93;4.07;;;17.20;78.40;;;;;;5158305;27;20482;-71
2021/05/17 00:51:16;;;;;;;5.00;3.88;;;17.10;78.80;;;;;;5158422;27;20022;-71
2021/05/17 00:53:42;;;;;;;9.18;4.22;;;17.00;79.10;;;;;;5158094;27;20030;-71
2021/05/17 00:56:08;;;;;;;6.35;4.82;;;16.90;79.90;;;;;;5158250;27;20070;-71
2021/05/17 00:58:34;;;;;;;10.55;5.40;;;16.80;80.60;;;;;;5158366;27;20026;-71
2021/05/17 01:01:03;;;;;;;13.02;5.57;;;16.70;81.50;;;;;;5158172;27;20022;-71
2021/05/17 01:03:28;;;;;;;7.82;4.75;;;16.60;82.40;;;;;;5158277;27;20015;-71
2021/05/17 01:05:55;;;;;;;5.68;4.57;;;16.50;83.00;;;;;;5139584;27;20042;-71
2021/05/17 01:08:29;;;;;;;6.70;4.55;;;16.40;83.80;;;;;;5158341;27;20030;-71
2021/05/17 01:10:56;;;;;;;9.30;4.97;;;16.30;84.60;;;;;;5157728;27;20106;-71
2021/05/17 01:13:23;;;;;;;8.68;5.00;;;16.30;85.20;;;;;;5158218;27;20413;-71
2021/05/17 01:15:50;;;;;;;8.23;4.75;;;16.20;86.30;;;;;;5138932;27;20054;-73
2021/05/17 01:18:17;;;;;;;9.05;4.90;;;16.10;87.20;;;;;;5158128;27;20031;-71
2021/05/17 01:20:47;;;;;;;8.02;5.25;;;16.10;88.10;;;;;;5157780;27;20349;-71
2021/05/17 01:25:59;;;;;;;10.93;5.75;;;16.00;89.60;;;;;;5157740;27;20353;-71
2021/05/17 01:28:28;;;;;;;9.40;6.18;;;16.00;90.20;;;;;;5157968;27;20038;-72
2021/05/17 01:30:57;;;;;;;7.32;5.18;;;15.90;90.50;;;;;;5139961;27;20023;-72
2021/05/17 01:33:23;;;;;;;11.70;5.80;;;15.90;91.00;;;;;;5157689;27;20096;-72
2021/05/17 01:35:51;;;;;;;7.72;5.78;;;15.90;91.30;;;;;;5157327;27;20113;-71
2021/05/17 01:38:18;;;;;;;9.30;5.35;;;15.90;91.50;;;;;;5157824;27;20065;-71
2021/05/17 01:40:46;;;;;;;7.90;5.55;;;15.80;91.80;;;;;;5157727;27;20026;-71
2021/05/17 01:43:15;;;;;;;9.23;5.75;;;15.80;92.10;;;;;;5157451;27;20062;-71
2021/05/17 01:45:41;;;;;;;11.35;6.40;;;15.80;92.20;;;;;;5157857;27;20091;-71
2021/05/17 01:48:08;;;;;;;11.10;6.13;;;15.90;92.60;;;;;;5157330;27;20058;-71
2021/05/17 01:50:36;;;;;;;11.00;6.45;;;15.90;92.90;;;;;;5138754;27;20029;-71
2021/05/17 01:53:03;;;;;;;10.43;6.25;;;15.90;93.50;;;;;;5157115;27;20050;-71
2021/05/17 01:55:29;;;;;;;10.13;6.00;;;16.00;93.60;;;;;;5156920;27;20023;-71
2021/05/17 01:58:10;;;;;;;9.52;5.90;;;16.10;93.30;;;;;;5157177;27;20054;-72
2021/05/17 02:00:37;;;;;;;10.38;5.95;;;16.10;93.10;;;;;;5157089;27;20027;-71
2021/05/17 02:03:03;;;;;;;7.38;5.30;;;16.10;93.10;;;;;;5157073;27;20151;-71
2021/05/17 02:05:29;;;;;;;8.27;5.43;;;16.00;93.00;;;;;;5156856;27;20109;-71
2021/05/17 02:07:56;;;;;;;9.85;5.57;;;16.00;93.30;;;;;;5157280;27;20030;-71
2021/05/17 02:10:22;;;;;;;8.95;5.15;;;16.00;93.50;;;;;;5156808;27;20033;-71
2021/05/17 02:12:48;;;;;;;10.23;4.20;;;16.00;93.60;;;;;;5157202;27;20019;-71
2021/05/17 02:15:18;;;;;;;7.85;4.40;;;16.00;93.30;;;;;;5156740;27;20029;-71
2021/05/17 02:17:45;;;;;;;7.80;4.38;;;16.00;93.20;;;;;;5157331;27;20051;-71
2021/05/17 02:20:17;;;;;;;6.80;4.80;;;15.90;93.00;;;;;;5157000;27;20053;-72
2021/05/17 02:22:43;;;;;;;7.68;4.35;;;15.90;93.10;;;;;;5156640;27;20378;-72
2021/05/17 02:25:10;;;;;;;6.65;4.22;;;15.90;93.10;;;;;;5156627;27;20031;-72
2021/05/17 02:27:44;;;;;;;5.88;4.30;;;15.90;93.20;;;;;;5156284;27;20039;-72
2021/05/17 02:30:11;;;;;;;8.48;4.43;;;15.90;93.30;;;;;;5156502;27;20053;-72
2021/05/17 02:32:38;;;;;;;6.40;5.15;;;15.80;93.50;;;;;;5156690;27;20033;-72
2021/05/17 02:35:05;;;;;;;7.80;4.93;;;15.90;93.80;;;;;;5156377;27;20056;-72
2021/05/17 02:37:33;;;;;;;7.38;5.45;;;15.90;94.00;;;;;;5156850;27;20410;-72
2021/05/17 02:40:04;;;;;;;5.95;5.03;;;15.90;93.90;;;;;;5156350;27;20365;-72
2021/05/17 02:42:33;;;;;;;6.68;4.20;;;15.90;94.00;;;;;;5156304;27;20103;-72
2021/05/17 02:44:59;;;;;;;6.40;4.10;;;16.00;94.00;;;;;;5156515;27;20023;-71
2021/05/17 02:47:25;;;;;;;6.38;4.15;;;16.00;94.00;;;;;;5155791;27;20027;-71
2021/05/17 02:49:53;;;;;;;5.22;4.20;;;16.00;93.90;;;;;;5156030;27;20061;-71
2021/05/17 02:52:19;;;;;;;8.93;4.85;;;16.00;93.80;;;;;;5155927;27;20026;-71
2021/05/17 02:54:58;;;;;;;5.53;4.35;;;16.10;93.90;;;;;;5156507;27;20467;-71
2021/05/17 02:57:58;;;;;;;8.43;5.05;;;16.10;93.90;;;;;;5156033;27;20462;-71
2021/05/17 03:00:30;;;;;;;5.32;4.60;;;16.10;93.90;;;;;;5141524;27;20058;-71
2021/05/17 03:03:02;;;;;;;5.95;4.80;;;16.10;94.00;;;;;;5155848;27;20120;-73
2021/05/17 03:05:35;;;;;;;8.15;4.68;;;16.20;94.10;;;;;;5155785;27;20380;-72
2021/05/17 03:08:07;;;;;;;7.75;5.50;;;16.20;94.20;;;;;;5155716;27;20053;-72
2021/05/17 03:10:36;;;;;;;7.43;5.45;;;16.30;94.40;;;;;;5155775;27;20416;-72
2021/05/17 03:13:16;;;;;;;8.85;5.10;;;16.30;94.40;;;;;;5155920;27;20105;-72
2021/05/17 03:15:42;;;;;;;5.75;4.70;;;16.40;94.50;;;;;;5155634;27;20026;-72
2021/05/17 03:18:10;;;;;;;11.38;5.80;;;16.50;94.40;;;;;;5155667;27;20147;-72
2021/05/17 03:20:38;;;;;;;7.25;5.40;;;16.50;94.40;;;;;;5155517;27;20031;-72
2021/05/17 03:23:10;;;;;;;8.05;4.70;;;16.60;94.50;;;;;;5156110;27;20019;-73
2021/05/17 03:25:37;;;;;;;6.18;4.80;;;16.50;94.40;;;;;;5155354;27;20034;-72
2021/05/17 03:28:03;;;;;;;7.97;4.55;;;16.60;94.40;;;;;;5155961;27;20140;-72
2021/05/17 03:30:29;;;;;;;6.60;4.93;;;16.60;94.30;;;;;;5155432;27;20401;-71
2021/05/17 03:32:55;;;;;;;8.20;4.30;;;16.60;94.20;;;;;;5155216;27;20023;-72
2021/05/17 03:35:21;;;;;;;6.22;4.93;;;16.60;94.30;;;;;;5155413;27;20486;-72
2021/05/17 03:37:47;;;;;;;7.40;4.45;;;16.70;94.30;;;;;;5154708;27;20065;-72
2021/05/17 03:40:15;;;;;;;8.25;4.57;;;16.70;94.50;;;;;;5155055;27;20437;-72
2021/05/17 03:42:41;;;;;;;8.38;4.25;;;16.70;94.30;;;;;;5155570;27;20066;-72
2021/05/17 03:45:09;;;;;;;6.80;4.15;;;16.70;94.30;;;;;;5155279;27;20436;-72
2021/05/17 03:47:35;;;;;;;8.40;4.43;;;16.70;94.20;;;;;;5155211;27;20384;-72
2021/05/17 03:50:02;;;;;;;6.53;4.22;;;16.70;94.40;;;;;;5155264;27;20019;-72
2021/05/17 03:52:28;;;;;;;5.65;4.15;;;16.80;94.60;;;;;;5155443;27;20046;-73
2021/05/17 03:54:53;;;;;;;4.85;4.00;;;16.80;94.80;;;;;;5155493;27;20022;-71
2021/05/17 03:57:19;;;;;;;5.65;4.13;;;16.80;94.90;;;;;;5153847;27;20082;-71
2021/05/17 03:59:46;;;;;;;7.97;4.30;;;16.80;95.00;;;;;;5155128;27;20026;-71
2021/05/17 04:02:18;;;;;;;7.38;3.70;;;16.80;95.00;;;;;;5155021;27;20035;-72
2021/05/17 04:04:55;;;;;;;3.92;3.50;;;16.90;95.00;;;;;;5155123;27;20102;-72
2021/05/17 04:15:27;;;;;;;4.83;4.33;;;17.00;94.00;;;;;;5155328;27;20492;-71
2021/05/17 04:17:53;;;;;;;9.52;4.30;;;16.90;93.80;;;;;;5155037;27;20342;-72
2021/05/17 04:20:18;;;;;;;6.30;3.90;;;16.80;93.80;;;;;;5154899;27;20372;-73
2021/05/17 04:22:44;;;;;;;4.60;3.55;;;16.80;94.10;;;;;;5155182;27;20030;-72
2021/05/17 04:25:10;;;;;;;4.88;3.30;;;16.80;94.50;;;;;;5154873;27;20067;-72
2021/05/17 04:27:37;;;;;;;5.40;3.53;;;16.80;94.70;;;;;;5154787;27;20035;-71
2021/05/17 04:30:05;;;;;;;4.07;3.65;;;16.90;94.80;;;;;;5155303;27;20029;-72
2021/05/17 04:32:31;;;;;;;5.47;4.65;;;17.00;94.90;;;;;;5155047;27;20341;-71
2021/05/17 04:34:56;;;;;;;4.38;3.47;;;17.10;94.90;;;;;;5154790;27;20078;-77
2021/05/17 04:37:22;;;;;;;3.78;3.47;;;17.20;94.70;;;;;;5154872;27;20027;-71
2021/05/17 04:39:47;;;;;;;3.83;3.38;;;17.30;94.60;;;;;;5154700;27;20023;-72
2021/05/17 04:42:13;;;;;;;4.30;3.20;;;17.30;94.50;;;;;;5154768;27;20035;-72
2021/05/17 04:44:39;;;;;;;4.43;3.38;;;17.40;94.40;;;;;;5155119;27;20022;-73
2021/05/17 04:47:05;;;;;;;3.90;3.33;;;17.50;94.40;;;;;;5154931;27;20064;-72
2021/05/17 04:49:31;;;;;;;5.05;3.33;;;17.60;94.20;;;;;;5155882;27;20453;-73
2021/05/17 04:51:56;;;;;;;3.65;3.35;;;17.70;94.00;;;;;;5158386;27;20034;-72
2021/05/17 04:54:22;;;;;;;3.72;3.35;;;17.80;93.90;;;;;;5158518;27;20520;-73
2021/05/17 04:56:48;;;;;;;5.97;3.50;;;17.80;93.80;;;;;;5158428;27;20030;-73
2021/05/17 04:59:14;;;;;;;4.80;3.85;;;17.90;93.70;;;;;;5158588;27;20376;-72
2021/05/17 05:01:39;;;;;;;6.82;3.90;;;18.00;93.70;;;;;;5158212;27;20054;-72
2021/05/17 05:04:05;;;;;;;7.45;4.03;;;18.10;93.60;;;;;;5158490;27;20030;-71
2021/05/17 05:06:31;;;;;;;5.38;3.70;;;18.20;93.70;;;;;;5158281;27;20460;-72
2021/05/17 05:08:57;;;;;;;6.22;3.72;;;18.30;94.00;;;;;;5158376;27;20034;-72
2021/05/17 05:11:23;;;;;;;4.22;3.80;;;18.50;93.80;;;;;;5158002;27;20031;-72
2021/05/17 05:13:49;;;;;;;9.73;3.80;;;18.60;93.30;;;;;;5157995;27;20023;-72
2021/05/17 05:16:15;;;;;;;5.03;3.33;;;18.70;93.00;;;;;;5157436;27;20110;-72
2021/05/17 05:18:40;;;;;;;5.60;3.20;;;18.70;92.70;;;;;;5157738;27;20046;-72
2021/05/17 05:21:06;;;;;;;4.82;3.40;;;18.70;92.50;;;;;;5158255;27;20034;-72
2021/05/17 05:23:32;;;;;;;4.18;3.63;;;18.70;92.60;;;;;;5157593;27;20068;-72
2021/05/17 05:28:44;;;;;;;4.65;3.90;;;18.90;92.80;;;;;;5157575;27;20098;-72
2021/05/17 05:33:51;;;;;;;7.43;3.60;;;19.10;92.60;;;;;;5157707;27;20105;-72
2021/05/17 05:36:17;;;;;;;5.60;3.50;;;19.20;92.70;;;;;;5156499;27;20113;-72
2021/05/17 05:38:42;;;;;;;4.10;3.55;;;19.30;92.60;;;;;;5157123;27;20025;-72
2021/05/17 05:41:09;;;;;;;5.03;3.67;;;19.40;92.20;;;;;;5157331;27;20063;-72
2021/05/17 05:43:34;;;;;;;4.03;3.55;;;19.50;91.90;;;;;;5158043;27;20376;-71
2021/05/17 05:46:00;;;;;;;4.90;3.33;;;19.60;91.70;;;;;;5157161;27;20031;-72
2021/05/17 05:48:26;;;;;;;4.68;3.55;;;19.60;91.50;;;;;;5138600;27;20030;-72
2021/05/17 05:50:52;;;;;;;4.40;3.72;;;19.70;91.10;;;;;;5156775;27;20050;-72
2021/05/17 05:53:18;;;;;;;7.72;4.10;;;19.70;91.10;;;;;;5156972;27;20030;-72
2021/05/17 05:55:45;;;;;;;3.70;3.35;;;19.60;90.90;;;;;;5156859;27;20022;-72
2021/05/17 05:58:11;;;;;;;3.88;3.47;;;19.70;90.80;;;;;;5157025;27;20038;-72
2021/05/17 06:00:37;;;;;;;4.43;3.90;;;19.70;90.60;;;;;;5156362;27;20102;-73
2021/05/17 06:03:05;;;;;;;6.72;3.92;;;19.70;90.60;;;;;;5156597;27;20373;-72
2021/05/17 06:05:31;;;;;;;11.75;3.92;;;19.80;90.90;;;;;;5155421;27;20478;-72
2021/05/17 06:07:58;;;;;;;5.50;3.80;;;19.90;91.00;;;;;;5156888;27;20023;-72
2021/05/17 06:10:24;;;;;;;6.13;3.67;;;20.10;90.80;;;;;;5156462;27;20387;-70
2021/05/17 06:12:50;;;;;;;4.45;3.63;;;20.20;90.50;;;;;;5156448;27;20027;-71
2021/05/17 06:15:20;;;;;;;4.22;3.60;;;20.20;90.20;;;;;;5156755;27;20030;-71
2021/05/17 06:17:47;;;;;;;3.92;3.53;;;20.30;89.70;;;;;;5155495;27;20091;-71
2021/05/17 06:20:14;;;;;;;4.65;4.07;;;20.30;89.00;;;;;;5156357;27;20110;-72
2021/05/17 06:22:41;;;;;;;4.70;4.10;;;20.30;89.10;;;;;;5156686;27;20033;-71
2021/05/17 06:25:12;;;;;;;4.38;3.70;;;20.40;88.90;;;;;;5156399;27;20035;-77
2021/05/17 06:27:39;;;;;;;4.95;4.18;;;20.50;88.30;;;;;;5156640;27;20371;-72
2021/05/17 06:30:09;;;;;;;4.88;3.65;;;20.60;87.90;;;;;;5156376;27;20031;-72
2021/05/17 06:32:36;;;;;;;5.28;3.88;;;20.70;88.00;;;;;;5156159;27;20034;-72
2021/05/17 06:35:08;;;;;;;4.50;4.10;;;20.90;87.60;;;;;;5155941;27;20034;-72
2021/05/17 06:37:34;;;;;;;5.28;3.90;;;21.00;87.00;;;;;;5156272;27;20038;-72
2021/05/17 06:40:00;;;;;;;6.18;4.45;;;21.20;87.50;;;;;;5155994;27;20022;-72
2021/05/17 06:42:25;;;;;;;4.57;3.55;;;21.50;88.00;;;;;;5156105;27;20114;-72
2021/05/17 06:44:51;;;;;;;5.78;4.10;;;21.70;87.20;;;;;;5156935;27;20072;-72
2021/05/17 06:47:18;;;;;;;6.45;3.40;;;22.00;86.30;;;;;;5156502;27;20031;-73
2021/05/17 06:49:46;;;;;;;5.00;3.80;;;22.30;85.30;;;;;;5156258;27;20033;-72
2021/05/17 06:52:13;;;;;;;6.53;3.75;;;22.60;83.50;;;;;;5156048;27;20064;-71
2021/05/17 06:54:41;;;;;;;4.78;3.63;;;22.70;82.50;;;;;;5156554;27;20030;-73
2021/05/17 06:57:25;;;;;;;4.60;4.03;;;22.80;81.30;;;;;;5156268;27;20060;-72
2021/05/17 06:59:56;;;;;;;5.22;3.70;;;22.90;80.00;;;;;;5156469;27;20022;-72
2021/05/17 07:02:23;;;;;;;5.03;4.03;;;22.90;80.00;;;;;;5156221;27;20460;-72
2021/05/17 07:04:50;;;;;;;4.93;3.67;;;23.00;79.00;;;;;;5155797;27;20027;-72
2021/05/17 07:07:29;;;;;;;5.97;4.45;;;23.10;78.20;;;;;;5156208;27;20051;-73
2021/05/17 07:12:39;;;;;;;5.22;4.00;;;23.00;76.00;;;;;;5154848;27;20026;-71
2021/05/17 07:15:05;;;;;;;5.20;4.07;;;22.70;75.20;;;;;;5155351;27;20031;-74
2021/05/17 07:17:31;;;;;;;4.68;4.20;;;22.30;74.60;;;;;;5155386;27;20034;-72
2021/05/17 07:19:58;;;;;;;7.15;4.28;;;22.00;74.90;;;;;;5155324;27;20365;-72
2021/05/17 07:25:09;;;;;;;8.23;5.03;;;21.20;75.90;;;;;;5155850;27;20062;-72
2021/05/17 07:27:34;;;;;;;10.05;5.45;;;20.80;77.10;;;;;;5154968;27;20099;-72
2021/05/17 07:30:00;;;;;;;8.65;5.30;;;20.50;77.80;;;;;;5136821;27;20023;-72
2021/05/17 07:32:26;;;;;;;6.80;4.80;;;20.20;78.70;;;;;;5155025;27;20114;-72
2021/05/17 07:34:52;;;;;;;6.05;4.40;;;20.00;79.30;;;;;;5137181;27;20049;-71
2021/05/17 07:37:19;;;;;;;8.50;5.57;;;19.80;79.80;;;;;;5154941;27;20456;-73
2021/05/17 07:39:45;;;;;;;7.32;5.03;;;19.50;80.60;;;;;;5155235;27;20375;-72
2021/05/17 07:42:11;;;;;;;5.60;4.55;;;19.30;81.20;;;;;;5153668;27;20039;-71
2021/05/17 07:44:36;;;;;;;6.03;5.03;;;19.10;82.00;;;;;;5155066;27;20038;-73
2021/05/17 07:47:02;;;;;;;9.07;6.07;;;18.90;82.20;;;;;;5137403;27;20042;-73
2021/05/17 07:49:41;;;;;;;7.35;5.70;;;18.80;82.90;;;;;;5155139;27;20046;-72
2021/05/17 07:52:07;;;;;;;6.43;5.35;;;18.70;83.60;;;;;;5155744;27;20042;-73
2021/05/17 07:54:34;;;;;;;7.22;5.47;;;18.60;84.20;;;;;;5154845;27;20030;-72
2021/05/17 07:57:00;;;;;;;11.48;6.63;;;18.50;84.60;;;;;;5155001;27;20062;-72
2021/05/17 07:59:29;;;;;;;10.93;6.47;;;18.50;85.00;;;;;;5155100;27;20053;-74
2021/05/17 08:01:56;;;;;;;8.18;5.93;;;18.30;85.30;;;;;;5136421;27;20114;-73
2021/05/17 08:04:22;;;;;;;12.10;6.55;;;18.10;86.00;;;;;;5155072;27;20030;-74
2021/05/17 08:06:48;;;;;;;8.02;6.63;;;18.10;86.70;;;;;;5155452;27;20402;-72
2021/05/17 08:09:14;;;;;;;13.52;7.43;;;18.00;87.60;;;;;;5155637;27;20026;-72
2021/05/17 08:11:40;;;;;;;12.18;8.80;;;17.90;88.60;;;;;;5154954;27;20019;-73
2021/05/17 08:14:06;;;;;;;10.93;6.15;;;17.90;89.50;;;;;;5154936;27;20029;-74
2021/05/17 08:16:32;;;;;;;12.63;7.25;;;17.90;89.40;;;;;;5155583;27;20034;-72
2021/05/17 08:18:58;;;;;;;10.85;7.60;;;17.80;89.40;;;;;;5136308;27;20023;-73
2021/05/17 08:21:24;;;;;;;14.98;7.45;;;17.80;89.80;;;;;;5155646;27;20029;-71
2021/05/17 08:23:52;;;;;;;9.48;6.65;;;17.70;89.90;;;;;;5155879;27;20026;-72
2021/05/17 08:26:18;;;;;;;12.88;7.07;;;17.70;90.10;;;;;;5158373;27;20113;-73
2021/05/17 08:28:44;;;;;;;8.23;6.60;;;17.60;90.30;;;;;;5159064;27;20080;-72
2021/05/17 08:31:12;;;;;;;9.40;6.60;;;17.50;90.50;;;;;;5158536;27;20026;-75
2021/05/17 08:33:39;;;;;;;8.55;6.10;;;17.50;90.70;;;;;;5158655;27;20015;-72
2021/05/17 08:36:05;;;;;;;9.45;6.38;;;17.50;91.00;;;;;;5158676;27;20057;-71
2021/05/17 08:38:32;;;;;;;7.32;5.70;;;17.60;91.30;;;;;;5159027;27;20467;-71
2021/05/17 08:40:58;;;;;;;8.57;6.10;;;17.70;91.30;;;;;;5157352;27;20051;-72
2021/05/17 08:43:24;;;;;;;10.98;5.97;;;17.70;91.40;;;;;;5158906;27;20045;-72
2021/05/17 08:45:50;;;;;;;8.13;6.13;;;17.80;91.60;;;;;;5139747;27;20033;-71
2021/05/17 08:48:16;;;;;;;8.80;6.70;;;18.00;91.50;;;;;;5158066;27;20109;-71
2021/05/17 08:50:41;;;;;;;7.95;6.45;;;18.10;91.40;;;;;;5158583;27;20075;-75
2021/05/17 08:53:09;;;;;;;6.82;5.95;;;18.30;91.40;;;;;;5158031;27;20376;-76
2021/05/17 08:55:34;;;;;;;6.43;5.40;;;18.40;91.30;;;;;;5158091;27;20033;-71
2021/05/17 08:58:00;;;;;;;12.52;6.78;;;18.70;91.50;;;;;;5158078;27;20035;-74
2021/05/17 09:00:26;;;;;;;12.23;9.13;;;19.00;91.60;;;;;;5158268;27;20490;-73
2021/05/17 09:02:52;;;;;;;10.77;7.30;;;19.20;91.20;;;;;;5158012;27;20083;-74
2021/05/17 09:05:21;;;;;;;7.88;5.63;;;19.50;90.40;;;;;;5158051;27;20027;-74
2021/05/17 09:07:49;;;;;;;7.13;5.38;;;19.80;89.60;;;;;;5140143;27;20528;-72
2021/05/17 09:10:18;;;;;;;8.98;5.82;;;20.00;88.20;;;;;;5158205;27;20392;-73
2021/05/17 09:13:17;;;;;;;13.30;11.18;;;20.10;86.80;;;;;;5157757;27;20023;-75
2021/05/17 09:15:54;;;;;;;8.75;7.07;;;20.30;86.30;;;;;;5122980;27;20087;-73
2021/05/17 09:18:27;;;;;;;10.63;6.63;;;20.30;85.40;;;;;;5158063;27;20043;-72
2021/05/17 09:20:55;;;;;;;6.53;5.88;;;20.40;84.80;;;;;;5157410;27;20106;-72
2021/05/17 09:23:31;;;;;;;8.38;6.47;;;20.30;84.10;;;;;;5157607;27;20376;-72
2021/05/17 09:26:03;;;;;;;9.55;6.18;;;20.40;84.10;;;;;;5157849;27;20030;-72
2021/05/17 09:28:36;;;;;;;9.45;7.50;;;20.60;83.90;;;;;;5157051;27;20023;-73
2021/05/17 09:31:17;;;;;;;8.70;5.63;;;20.80;83.70;;;;;;5157442;27;20030;-74
2021/05/17 09:33:49;;;;;;;7.35;6.10;;;21.10;83.20;;;;;;5157800;27;20033;-75
2021/05/17 09:36:28;;;;;;;11.60;6.53;;;21.40;82.40;;;;;;5156740;27;20099;-72
2021/05/17 09:39:17;;;;;;;5.80;5.00;;;21.80;81.20;;;;;;5157288;27;20118;-72
2021/05/17 09:41:47;;;;;;;8.63;6.38;;;22.00;79.60;;;;;;5158052;27;20161;-72
2021/05/17 09:44:21;;;;;;;7.13;4.97;;;22.30;79.30;;;;;;5157406;27;20026;-72
2021/05/17 09:47:08;;;;;;;6.50;5.25;;;22.40;77.40;;;;;;5156991;27;20035;-72
2021/05/17 09:49:51;;;;;;;7.82;5.70;;;22.70;77.30;;;;;;5157222;27;20037;-73
2021/05/17 09:52:16;;;;;;;7.88;4.97;;;23.00;77.20;;;;;;5157380;27;20034;-72
2021/05/17 09:54:51;;;;;;;6.07;4.70;;;23.40;75.80;;;;;;5157134;27;20408;-73
2021/05/17 09:57:23;;;;;;;6.45;5.18;;;23.60;73.80;;;;;;5157246;27;20110;-74
2021/05/17 09:59:51;;;;;;;5.60;4.60;;;23.90;73.40;;;;;;5157020;27;20376;-73
2021/05/17 10:02:35;;;;;;;5.63;4.88;;;24.70;73.60;;;;;;5157557;27;20042;-72
2021/05/17 10:05:17;;;;;;;7.33;4.80;;;25.80;70.90;;;;;;5156714;27;20027;-72
2021/05/17 10:07:46;;;;;;;5.15;4.60;;;27.00;68.90;;;;;;5156648;27;20285;-72
2021/05/17 10:10:13;;;;;;;6.72;5.43;;;27.80;67.40;;;;;;5138189;27;20479;-72
2021/05/17 10:12:39;;;;;;;7.53;4.53;;;28.70;65.70;;;;;;5156711;27;20031;-72
2021/05/17 10:15:07;;;;;;;5.25;4.10;;;29.90;63.70;;;;;;5156882;27;20101;-72
2021/05/17 10:17:34;;;;;;;5.53;4.70;;;31.00;60.70;;;;;;5156031;27;20502;-75
2021/05/17 10:20:14;;;;;;;5.47;4.10;;;32.10;58.60;;;;;;5138347;27;20369;-72
2021/05/17 10:22:41;;;;;;;4.60;4.13;;;33.10;55.80;;;;;;5156649;27;20019;-72
2021/05/17 10:25:09;;;;;;;5.63;4.18;;;33.80;54.40;;;;;;5156361;27;20464;-72
2021/05/17 10:27:46;;;;;;;6.03;3.72;;;34.30;52.10;;;;;;5156635;27;20075;-73
2021/05/17 10:30:13;;;;;;;4.50;4.10;;;34.90;50.30;;;;;;5137935;27;20023;-72
2021/05/17 10:33:00;;;;;;;6.72;4.80;;;35.30;49.80;;;;;;5155755;27;20034;-72
2021/05/17 10:35:33;;;;;;;5.07;4.40;;;35.80;48.30;;;;;;5137822;27;20030;-73
2021/05/17 10:38:25;;;;;;;10.43;5.35;;;36.20;47.30;;;;;;5156546;27;20031;-72
2021/05/17 10:41:17;;;;;;;5.05;4.20;;;35.90;46.90;;;;;;5138136;27;20314;-72
2021/05/17 10:44:00;;;;;;;7.80;4.60;;;35.70;46.40;;;;;;5156906;27;20378;-72
2021/05/17 10:46:37;;;;;;;5.53;4.35;;;35.70;45.50;;;;;;5155949;27;20030;-72
2021/05/17 10:49:33;;;;;;;5.25;4.03;;;35.60;45.90;;;;;;5155908;27;20380;-72
2021/05/17 10:52:10;;;;;;;5.57;4.05;;;36.00;45.30;;;;;;5155408;27;20046;-72
2021/05/17 10:54:41;;;;;;;6.03;4.55;;;36.50;44.70;;;;;;5156412;27;20050;-73
2021/05/17 10:57:27;;;;;;;4.80;4.18;;;35.90;43.50;;;;;;5156100;27;20022;-72
2021/05/17 11:02:39;;;;;;;6.10;4.57;;;33.90;45.00;;;;;;5156257;27;20034;-72
2021/05/17 11:05:18;;;;;;;4.45;4.03;;;33.50;45.50;;;;;;5155896;27;20027;-71
2021/05/17 11:07:45;;;;;;;6.68;4.53;;;33.00;45.70;;;;;;5155629;27;20384;-71
2021/05/17 11:10:15;;;;;;;4.53;4.10;;;32.50;46.30;;;;;;5155943;27;20064;-72
2021/05/17 11:12:41;;;;;;;4.15;3.75;;;31.90;46.70;;;;;;5155432;27;20030;-73
2021/05/17 11:15:08;;;;;;;7.22;4.47;;;31.40;47.50;;;;;;5155640;27;20030;-74
2021/05/17 11:17:54;;;;;;;4.30;3.90;;;31.10;48.10;;;;;;5155323;27;20027;-72
2021/05/17 11:20:38;;;;;;;4.72;3.63;;;31.20;48.80;;;;;;5155491;27;20025;-72
2021/05/17 11:23:08;;;;;;;4.93;3.63;;;31.50;48.10;;;;;;5155374;27;20101;-72
2021/05/17 11:25:55;;;;;;;9.32;4.90;;;31.40;48.10;;;;;;5155845;27;20037;-71
2021/05/17 11:28:39;;;;;;;7.43;5.18;;;31.30;48.90;;;;;;5155388;27;20100;-72
2021/05/17 11:31:20;;;;;;;8.02;4.63;;;31.50;49.10;;;;;;5155334;27;20381;-72
2021/05/17 11:33:50;;;;;;;7.80;5.60;;;31.40;49.10;;;;;;5155159;27;20062;-72
2021/05/17 11:36:18;;;;;;;7.18;5.15;;;31.00;49.50;;;;;;5136717;27;20098;-72
2021/05/17 11:39:13;;;;;;;8.30;5.68;;;30.60;50.00;;;;;;5155310;27;20033;-72
2021/05/17 11:41:46;;;;;;;7.50;5.50;;;30.10;50.50;;;;;;5136907;27;20052;-72
2021/05/17 11:44:15;;;;;;;6.75;5.30;;;30.10;51.10;;;;;;5155224;27;20468;-72
2021/05/17 11:46:47;;;;;;;6.65;5.72;;;29.90;51.50;;;;;;5155099;27;20022;-73
2021/05/17 11:49:15;;;;;;;6.72;5.85;;;29.60;51.60;;;;;;5154237;27;20023;-71
2021/05/17 11:51:46;;;;;;;7.38;6.40;;;29.20;52.00;;;;;;5155402;27;20483;-72
2021/05/17 11:54:12;;;;;;;6.97;5.60;;;28.90;52.50;;;;;;5154849;27;20094;-72
2021/05/17 11:56:39;;;;;;;6.88;5.90;;;28.50;53.00;;;;;;5155260;27;20480;-72
2021/05/17 11:59:05;;;;;;;8.57;6.45;;;28.20;53.60;;;;;;5138114;27;20467;-72
2021/05/17 12:01:31;;;;;;;7.22;5.93;;;28.00;53.90;;;;;;5159272;27;20022;-72
2021/05/17 12:04:12;;;;;;;7.40;6.70;;;27.80;54.30;;;;;;5159360;27;20029;-71
2021/05/17 12:06:43;;;;;;;8.10;6.43;;;27.60;54.50;;;;;;5159412;27;20038;-73
2021/05/17 12:09:09;;;;;;;8.75;6.00;;;28.00;55.40;;;;;;5159440;27;20035;-73
2021/05/17 12:11:46;;;;;;;7.72;5.80;;;28.80;54.50;;;;;;5159462;27;20027;-71
2021/05/17 12:14:11;;;;;;;7.25;6.40;;;29.20;53.40;;;;;;5159168;27;20058;-72
2021/05/17 12:16:37;;;;;;;7.68;5.78;;;29.20;52.90;;;;;;5159068;27;20077;-74
2021/05/17 12:19:03;;;;;;;7.07;6.38;;;29.00;53.40;;;;;;5158867;27;20031;-71
2021/05/17 12:21:37;;;;;;;6.72;5.97;;;28.80;53.00;;;;;;5159430;27;20022;-74
2021/05/17 12:24:04;;;;;;;;;;;28.60;53.30;;;;;;5160224;27;20109;-72
2021/05/17 12:27:11;;;;;;;9.02;6.70;;;28.30;53.50;;;;;;5158775;27;19911;-73
2021/05/17 12:29:56;;;;;;;10.45;7.00;;;27.90;54.20;;;;;;5095066;28;20458;-72
2021/05/17 12:32:53;;;;;;;9.05;6.90;;;27.50;54.80;;;;;;5094481;28;20473;-72
2021/05/17 12:35:21;;;;;;;12.15;7.85;;;27.20;55.30;;;;;;5147876;27;20039;-72
2021/05/17 12:37:51;;;;;;;8.73;6.57;;;27.10;55.90;;;;;;5158773;27;20114;-73
2021/05/17 12:40:20;;;;;;;7.80;7.00;;;27.20;56.00;;;;;;5158309;27;20019;-72
2021/05/17 12:43:17;;;;;;;9.05;7.20;;;27.20;56.00;;;;;;5158360;27;20121;-72
2021/05/17 12:45:47;;;;;;;10.25;7.05;;;27.10;56.20;;;;;;5159254;27;20015;-72
2021/05/17 12:48:27;;;;;;;7.70;6.90;;;27.00;56.50;;;;;;5158643;27;20062;-71
2021/05/17 12:50:55;;;;;;;10.15;7.20;;;26.90;56.50;;;;;;5157228;27;20026;-72
2021/05/17 12:53:27;;;;;;;6.88;6.18;;;27.10;56.60;;;;;;5158273;27;20098;-73
2021/05/17 12:55:55;;;;;;;9.07;6.35;;;27.70;56.20;;;;;;5139727;27;20023;-72
2021/05/17 12:58:38;;;;;;;7.18;5.65;;;28.20;55.50;;;;;;5158352;27;20023;-72
2021/05/17 13:01:17;;;;;;;7.47;5.07;;;29.60;54.80;;;;;;5158504;27;20074;-72
2021/05/17 13:03:45;;;;;;;5.82;5.25;;;31.50;52.80;;;;;;5156902;27;20019;-71
2021/05/17 13:06:29;;;;;;;7.72;4.90;;;33.00;50.80;;;;;;5157642;27;20041;-73
2021/05/17 13:08:58;;;;;;;;;;;33.50;47.80;;;;;;5158878;27;20090;-72
2021/05/17 13:11:30;;;;;;;5.90;4.43;;;33.40;48.80;;;;;;5156427;27;19963;-72
2021/05/17 13:13:59;;;;;;;5.28;4.72;;;33.40;47.40;;;;;;5157992;27;20036;-72
2021/05/17 13:16:48;;;;;;;6.63;4.40;;;33.60;47.00;;;;;;5157918;27;20037;-73
2021/05/17 13:30:31;;;;;;;8.00;4.90;;;31.50;47.40;;;;;;5157806;27;20057;-73
2021/05/17 13:32:57;;;;;;;9.00;4.97;;;30.80;48.30;;;;;;5157747;27;20031;-73
2021/05/17 13:35:23;;;;;;;8.13;5.38;;;30.20;48.90;;;;;;5157904;27;20019;-73